createdAt,value
2023-04-15T00:01:00.361Z,6.30
2023-04-15T00:03:28.668Z,7.90
2023-04-15T00:05:55.515Z,6.47
2023-04-15T00:08:22.272Z,7.13
2023-04-15T00:10:49.321Z,7.20
2023-04-15T00:13:16.626Z,7.25
2023-04-15T00:15:43.449Z,7.00
2023-04-15T00:18:10.227Z,6.70
2023-04-15T00:20:37.214Z,7.18
2023-04-15T00:23:04.372Z,6.63
2023-04-15T00:25:31.272Z,7.38
2023-04-15T00:27:58.360Z,7.03
2023-04-15T00:30:26.645Z,7.18
2023-04-15T00:32:53.955Z,5.90
2023-04-15T00:35:22.543Z,6.18
2023-04-15T00:37:51.496Z,7.07
2023-04-15T00:40:19.826Z,7.28
2023-04-15T00:42:46.650Z,6.80
2023-04-15T00:45:14.117Z,6.78
2023-04-15T00:47:44.762Z,7.05
2023-04-15T00:50:15.892Z,8.10
2023-04-15T00:52:45.088Z,6.35
2023-04-15T00:55:11.863Z,7.07
2023-04-15T00:57:39.951Z,7.10
2023-04-15T01:00:11.657Z,7.15
2023-04-15T01:02:39.308Z,6.68
2023-04-15T01:05:06.166Z,7.53
2023-04-15T01:07:33.121Z,7.30
2023-04-15T01:09:59.920Z,6.97
2023-04-15T01:12:27.364Z,6.47
2023-04-15T01:14:55.126Z,7.03
2023-04-15T01:17:21.848Z,6.93
2023-04-15T01:19:48.783Z,7.57
2023-04-15T01:22:16.583Z,7.40
2023-04-15T01:24:52.325Z,6.78
2023-04-15T01:27:19.456Z,6.72
2023-04-15T01:29:46.480Z,6.40
2023-04-15T01:32:13.097Z,6.93
2023-04-15T01:34:39.782Z,7.15
2023-04-15T01:37:09.366Z,7.22
2023-04-15T01:39:36.210Z,7.25
2023-04-15T01:42:03.361Z,7.75
2023-04-15T01:44:31.205Z,7.93
2023-04-15T01:46:58.661Z,7.53
2023-04-15T01:49:27.728Z,7.65
2023-04-15T01:51:54.912Z,7.78
2023-04-15T01:54:21.571Z,7.55
2023-04-15T01:56:48.235Z,7.90
2023-04-15T01:59:14.930Z,7.95
2023-04-15T02:01:42.597Z,8.00
2023-04-15T02:04:16.469Z,7.40
2023-04-15T02:06:43.923Z,7.47
2023-04-15T02:09:12.341Z,7.32
2023-04-15T02:11:39.259Z,8.25
2023-04-15T02:14:06.394Z,8.05
2023-04-15T02:16:33.827Z,7.80
2023-04-15T02:19:01.079Z,8.00
2023-04-15T02:21:28.012Z,7.30
2023-04-15T02:23:54.624Z,8.02
2023-04-15T02:26:22.354Z,8.48
2023-04-15T02:28:51.517Z,7.65
2023-04-15T02:31:18.543Z,8.63
2023-04-15T02:33:45.765Z,7.45
2023-04-15T02:36:12.905Z,7.63
2023-04-15T02:38:42.436Z,7.15
2023-04-15T02:41:10.595Z,8.57
2023-04-15T02:43:40.027Z,8.27
2023-04-15T02:46:08.226Z,8.20
2023-04-15T02:48:34.919Z,7.85
2023-04-15T02:51:22.688Z,8.43
2023-04-15T02:53:49.882Z,8.30
2023-04-15T02:56:19.654Z,8.70
2023-04-15T02:58:47.006Z,8.35
2023-04-15T03:01:13.900Z,8.18
2023-04-15T03:03:41.788Z,8.73
2023-04-15T03:06:09.067Z,9.40
2023-04-15T03:08:36.505Z,8.15
2023-04-15T03:11:03.538Z,9.68
2023-04-15T03:13:30.473Z,9.05
2023-04-15T03:15:59.102Z,8.48
2023-04-15T03:18:27.026Z,8.93
2023-04-15T03:20:53.856Z,8.48
2023-04-15T03:23:20.901Z,9.57
2023-04-15T03:25:48.774Z,8.85
2023-04-15T03:28:15.836Z,9.25
2023-04-15T03:30:42.610Z,8.30
2023-04-15T03:33:09.529Z,9.18
2023-04-15T03:35:36.971Z,9.35
2023-04-15T03:38:03.763Z,10.20
2023-04-15T03:40:30.489Z,9.65
2023-04-15T03:42:57.100Z,10.48
2023-04-15T03:45:23.863Z,10.23
2023-04-15T03:47:50.642Z,10.98
2023-04-15T03:50:17.399Z,10.75
2023-04-15T03:52:44.997Z,10.05
2023-04-15T03:55:11.652Z,10.60
2023-04-15T03:57:39.253Z,10.80
2023-04-15T04:00:06.686Z,10.38
2023-04-15T04:02:38.764Z,10.45
2023-04-15T04:05:05.904Z,10.23
2023-04-15T04:07:32.530Z,10.00
2023-04-15T04:09:59.244Z,10.95
2023-04-15T04:12:25.966Z,12.85
2023-04-15T04:14:52.750Z,12.65
2023-04-15T04:17:19.629Z,12.13
2023-04-15T04:19:46.535Z,12.38
2023-04-15T04:22:13.128Z,13.05
2023-04-15T04:24:39.791Z,12.38
2023-04-15T04:27:06.458Z,12.20
2023-04-15T04:29:33.074Z,12.68
2023-04-15T04:31:59.777Z,13.00
2023-04-15T04:34:26.637Z,12.85
2023-04-15T04:36:53.304Z,11.70
2023-04-15T04:39:19.954Z,10.90
2023-04-15T04:41:46.735Z,12.52
2023-04-15T04:44:13.346Z,12.48
2023-04-15T04:46:39.990Z,12.45
2023-04-15T04:49:09.492Z,12.82
2023-04-15T04:51:36.300Z,13.18
2023-04-15T04:54:03.798Z,13.63
2023-04-15T04:56:30.796Z,13.13
2023-04-15T04:58:57.441Z,12.93
2023-04-15T05:01:24.197Z,13.43
2023-04-15T05:03:51.080Z,14.02
2023-04-15T05:06:17.776Z,13.98
2023-04-15T05:08:46.626Z,14.35
2023-04-15T05:11:13.310Z,14.00
2023-04-15T05:13:39.941Z,14.00
2023-04-15T05:16:06.690Z,14.10
2023-04-15T05:18:33.370Z,14.40
2023-04-15T05:21:00.032Z,14.20
2023-04-15T05:23:26.686Z,14.75
2023-04-15T05:25:53.389Z,15.43
2023-04-15T05:28:20.015Z,15.70
2023-04-15T05:30:46.695Z,16.13
2023-04-15T05:33:13.338Z,14.45
2023-04-15T05:35:40.016Z,14.43
2023-04-15T05:38:06.824Z,15.70
2023-04-15T05:40:33.578Z,15.25
2023-04-15T05:43:00.331Z,14.43
2023-04-15T05:45:27.400Z,15.23
2023-04-15T05:47:54.612Z,15.43
2023-04-15T05:50:21.849Z,14.30
2023-04-15T05:52:48.455Z,13.93
2023-04-15T05:55:15.080Z,13.82
2023-04-15T05:57:41.726Z,12.68
2023-04-15T06:00:08.837Z,12.30
2023-04-15T06:02:38.564Z,13.02
2023-04-15T06:05:09.828Z,13.18
2023-04-15T06:07:37.493Z,12.57
2023-04-15T06:10:05.793Z,12.85
2023-04-15T06:12:32.394Z,13.02
2023-04-15T06:15:00.106Z,12.25
2023-04-15T06:17:27.174Z,13.38
2023-04-15T06:19:55.830Z,12.80
2023-04-15T06:22:23.375Z,12.38
2023-04-15T06:24:51.247Z,12.40
2023-04-15T06:27:18.041Z,13.05
2023-04-15T06:29:44.899Z,12.40
2023-04-15T06:32:13.093Z,11.60
2023-04-15T06:34:39.817Z,12.05
2023-04-15T06:37:06.635Z,10.82
2023-04-15T06:39:33.324Z,10.55
2023-04-15T06:41:59.973Z,12.25
2023-04-15T06:44:26.704Z,11.13
2023-04-15T06:46:53.413Z,10.00
2023-04-15T06:49:20.019Z,10.57
2023-04-15T06:51:46.719Z,10.20
2023-04-15T06:54:13.422Z,9.77
2023-04-15T06:56:40.092Z,10.25
2023-04-15T06:59:06.746Z,10.32
2023-04-15T07:01:33.438Z,8.98
2023-04-15T07:04:00.379Z,10.07
2023-04-15T07:06:27.626Z,9.75
2023-04-15T07:08:55.692Z,9.10
2023-04-15T07:11:22.549Z,10.50
2023-04-15T07:13:49.251Z,9.57
2023-04-15T07:16:15.881Z,8.93
2023-04-15T07:18:43.488Z,8.85
2023-04-15T07:21:10.246Z,9.57
2023-04-15T07:23:36.882Z,9.80
2023-04-15T07:26:04.109Z,9.05
2023-04-15T07:28:30.797Z,8.32
2023-04-15T07:30:57.477Z,9.77
2023-04-15T07:33:24.170Z,8.40
2023-04-15T07:35:50.793Z,9.00
2023-04-15T07:38:17.546Z,9.20
2023-04-15T07:40:44.214Z,8.35
2023-04-15T07:43:10.986Z,8.50
2023-04-15T07:45:37.612Z,8.95
2023-04-15T07:48:04.763Z,8.38
2023-04-15T07:50:31.672Z,7.82
2023-04-15T07:52:58.522Z,7.45
2023-04-15T07:55:26.168Z,8.40
2023-04-15T07:57:53.903Z,7.53
2023-04-15T08:00:20.756Z,7.97
2023-04-15T08:02:48.370Z,7.07
2023-04-15T08:05:15.467Z,7.85
2023-04-15T08:07:42.144Z,6.65
2023-04-15T08:10:09.099Z,7.85
2023-04-15T08:12:36.008Z,6.97
2023-04-15T08:15:03.082Z,7.47
2023-04-15T08:17:29.752Z,6.60
2023-04-15T08:19:57.202Z,8.25
2023-04-15T08:22:24.149Z,7.05
2023-04-15T08:24:51.298Z,8.48
2023-04-15T08:27:18.076Z,7.70
2023-04-15T08:29:45.713Z,7.15
2023-04-15T08:32:12.370Z,7.53
2023-04-15T08:34:39.095Z,7.88
2023-04-15T08:37:06.526Z,7.47
2023-04-15T08:39:33.486Z,7.00
2023-04-15T08:42:05.708Z,6.82
2023-04-15T08:44:34.970Z,6.85
2023-04-15T08:47:02.595Z,7.10
2023-04-15T08:49:29.995Z,6.90
2023-04-15T08:51:59.329Z,7.07
2023-04-15T08:54:27.172Z,7.70
2023-04-15T08:56:54.538Z,7.85
2023-04-15T08:59:24.488Z,7.47
2023-04-15T09:01:51.886Z,7.43
2023-04-15T09:04:18.617Z,8.65
2023-04-15T09:06:45.624Z,8.35
2023-04-15T09:09:14.381Z,9.77
2023-04-15T09:11:42.928Z,8.13
2023-04-15T09:14:09.624Z,8.20
2023-04-15T09:17:01.932Z,14.35
2023-04-15T09:19:29.035Z,7.38
2023-04-15T09:21:59.058Z,8.45
2023-04-15T09:24:36.361Z,7.45
2023-04-15T09:27:03.672Z,6.28
2023-04-15T09:29:30.650Z,6.72
2023-04-15T09:31:57.252Z,6.53
2023-04-15T09:34:35.843Z,6.72
2023-04-15T09:37:03.181Z,6.90
2023-04-15T09:39:50.022Z,6.45
2023-04-15T09:42:17.665Z,6.07
2023-04-15T09:44:44.436Z,6.00
2023-04-15T09:47:27.690Z,6.57
2023-04-15T09:50:01.312Z,5.85
2023-04-15T09:52:28.897Z,5.38
2023-04-15T09:55:00.255Z,6.78
2023-04-15T09:57:38.167Z,7.15
2023-04-15T10:00:06.891Z,6.80
2023-04-15T10:02:34.659Z,6.43
2023-04-15T10:05:04.826Z,6.20
2023-04-15T10:07:32.098Z,6.35
2023-04-15T10:09:59.946Z,6.72
2023-04-15T10:12:27.242Z,6.32
2023-04-15T10:14:59.435Z,7.03
2023-04-15T10:17:31.630Z,6.32
2023-04-15T10:20:01.815Z,8.32
2023-04-15T10:22:30.681Z,6.15
2023-04-15T10:24:57.706Z,6.18
2023-04-15T10:27:24.688Z,6.28
2023-04-15T10:29:51.397Z,6.20
2023-04-15T10:32:20.014Z,6.20
2023-04-15T10:34:48.066Z,6.25
2023-04-15T10:37:21.057Z,6.32
2023-04-15T10:39:47.823Z,6.55
2023-04-15T10:42:16.417Z,6.55
2023-04-15T10:44:49.874Z,4.65
2023-04-15T10:47:21.584Z,5.70
2023-04-15T10:49:55.914Z,5.07
2023-04-15T10:52:28.021Z,5.45
2023-04-15T10:55:14.220Z,5.45
2023-04-15T10:57:41.897Z,5.20
2023-04-15T11:00:09.129Z,5.38
2023-04-15T11:02:43.629Z,5.13
2023-04-15T11:05:11.669Z,5.28
2023-04-15T11:07:44.671Z,5.95
2023-04-15T11:10:36.686Z,5.38
2023-04-15T11:13:05.488Z,5.70
2023-04-15T11:15:35.161Z,5.13
2023-04-15T11:18:26.764Z,5.50
2023-04-15T11:20:57.501Z,6.30
2023-04-15T11:23:38.678Z,5.85
2023-04-15T11:26:09.927Z,4.90
2023-04-15T11:28:38.784Z,4.10
2023-04-15T11:31:07.419Z,5.65
2023-04-15T11:33:34.214Z,5.45
2023-04-15T11:36:01.539Z,5.38
2023-04-15T11:38:28.571Z,5.07
2023-04-15T11:40:55.482Z,5.88
2023-04-15T11:43:22.995Z,5.30
2023-04-15T11:45:58.205Z,5.00
2023-04-15T11:48:27.156Z,5.40
2023-04-15T11:50:59.257Z,6.10
2023-04-15T11:53:42.585Z,5.18
2023-04-15T11:56:18.654Z,5.88
2023-04-15T11:58:46.419Z,6.22
2023-04-15T12:01:13.459Z,6.57
2023-04-15T12:03:42.495Z,5.93
2023-04-15T12:06:19.538Z,5.90
2023-04-15T12:08:55.784Z,5.63
2023-04-15T12:11:57.395Z,6.13
2023-04-15T12:14:28.970Z,5.63
2023-04-15T12:17:01.984Z,6.20
2023-04-15T12:19:35.643Z,6.30
2023-04-15T12:22:10.084Z,5.78
2023-04-15T12:24:37.854Z,6.68
2023-04-15T12:27:06.665Z,6.47
2023-04-15T12:29:35.302Z,5.50
2023-04-15T12:32:10.568Z,5.82
2023-04-15T12:34:39.385Z,6.47
2023-04-15T12:37:09.788Z,6.32
2023-04-15T12:39:41.445Z,9.30
2023-04-15T12:42:08.849Z,5.90
2023-04-15T12:44:36.464Z,7.40
2023-04-15T12:47:03.574Z,7.47
2023-04-15T12:49:31.018Z,6.38
2023-04-15T12:52:00.142Z,6.35
2023-04-15T12:54:27.230Z,5.82
2023-04-15T12:56:54.708Z,5.50
2023-04-15T12:59:21.691Z,4.80
2023-04-15T13:01:49.067Z,5.28
2023-04-15T13:04:20.180Z,5.40
2023-04-15T13:06:47.003Z,4.65
2023-04-15T13:09:16.060Z,5.22
2023-04-15T13:11:43.111Z,4.85
2023-04-15T13:14:11.328Z,5.20
2023-04-15T13:16:39.847Z,4.65
2023-04-15T13:19:06.678Z,5.63
2023-04-15T13:21:35.514Z,4.55
2023-04-15T13:24:03.618Z,5.45
2023-04-15T13:26:31.632Z,5.15
2023-04-15T13:28:58.287Z,4.88
2023-04-15T13:31:25.424Z,4.40
2023-04-15T13:33:52.097Z,4.43
2023-04-15T13:36:18.825Z,5.43
2023-04-15T13:38:45.702Z,4.50
2023-04-15T13:41:12.409Z,3.90
2023-04-15T13:43:39.079Z,3.83
2023-04-15T13:46:07.050Z,3.67
2023-04-15T13:48:34.133Z,3.08
2023-04-15T13:51:01.807Z,3.78
2023-04-15T13:53:38.140Z,3.30
2023-04-15T13:56:07.856Z,3.38
2023-04-15T13:58:34.699Z,3.70
2023-04-15T14:01:03.230Z,3.38
2023-04-15T14:03:31.786Z,3.75
2023-04-15T14:05:58.836Z,4.03
2023-04-15T14:08:25.835Z,4.55
2023-04-15T14:10:52.589Z,4.13
2023-04-15T14:13:24.558Z,4.45
2023-04-15T14:15:51.328Z,3.75
2023-04-15T14:18:18.088Z,4.10
2023-04-15T14:20:46.225Z,4.15
2023-04-15T14:23:13.053Z,3.95
2023-04-15T14:25:39.724Z,4.53
2023-04-15T14:28:06.364Z,4.20
2023-04-15T14:30:33.364Z,5.57
2023-04-15T14:33:00.431Z,5.85
2023-04-15T14:35:27.403Z,4.35
2023-04-15T14:37:54.464Z,3.80
2023-04-15T14:40:21.474Z,3.85
2023-04-15T14:42:48.382Z,4.25
2023-04-15T14:45:15.081Z,4.70
2023-04-15T14:47:42.043Z,5.40
2023-04-15T14:50:09.170Z,3.83
2023-04-15T14:52:39.086Z,3.55
2023-04-15T14:55:12.669Z,3.85
2023-04-15T14:57:40.928Z,3.60
2023-04-15T15:00:10.093Z,3.53
2023-04-15T15:02:40.128Z,3.22
2023-04-15T15:05:08.429Z,3.75
2023-04-15T15:07:37.315Z,3.97
2023-04-15T15:10:04.713Z,3.67
2023-04-15T15:12:32.037Z,3.92
2023-04-15T15:14:58.744Z,4.15
2023-04-15T15:17:25.785Z,3.95
2023-04-15T15:19:52.929Z,5.15
2023-04-15T15:22:21.359Z,4.95
2023-04-15T15:24:48.495Z,4.13
2023-04-15T15:27:15.200Z,4.43
2023-04-15T15:29:43.195Z,4.43
2023-04-15T15:32:09.885Z,4.43
2023-04-15T15:34:36.618Z,3.95
2023-04-15T15:37:03.621Z,4.35
2023-04-15T15:39:31.660Z,4.68
2023-04-15T15:41:58.362Z,4.32
2023-04-15T15:44:25.408Z,3.53
2023-04-15T15:46:52.082Z,3.25
2023-04-15T15:49:20.089Z,4.15
2023-04-15T15:51:49.945Z,4.15
2023-04-15T15:54:16.640Z,4.00
2023-04-15T15:56:43.451Z,4.00
2023-04-15T15:59:10.130Z,3.72
2023-04-15T16:01:36.881Z,4.05
2023-04-15T16:04:03.973Z,3.92
2023-04-15T16:06:34.418Z,4.57
2023-04-15T16:09:02.581Z,4.85
2023-04-15T16:11:29.933Z,4.57
2023-04-15T16:13:56.720Z,4.35
2023-04-15T16:16:24.446Z,4.50
2023-04-15T16:18:51.152Z,5.10
2023-04-15T16:21:18.188Z,5.20
2023-04-15T16:23:44.900Z,4.03
2023-04-15T16:26:13.528Z,4.68
2023-04-15T16:28:40.262Z,4.57
2023-04-15T16:31:07.056Z,4.93
2023-04-15T16:33:35.523Z,4.65
2023-04-15T16:36:02.258Z,4.38
2023-04-15T16:38:30.145Z,4.72
2023-04-15T16:41:01.406Z,4.82
2023-04-15T16:43:32.028Z,5.20
2023-04-15T16:45:58.741Z,4.25
2023-04-15T16:48:26.969Z,4.00
2023-04-15T16:50:53.712Z,3.90
2023-04-15T16:53:20.424Z,3.10
2023-04-15T16:55:47.115Z,3.40
2023-04-15T16:58:13.780Z,3.20
2023-04-15T17:00:41.488Z,3.45
2023-04-15T17:03:08.370Z,4.00
2023-04-15T17:05:36.205Z,3.60
2023-04-15T17:08:02.973Z,3.60
2023-04-15T17:10:31.011Z,2.97
2023-04-15T17:12:57.953Z,3.30
2023-04-15T17:15:24.953Z,3.92
2023-04-15T17:17:52.384Z,3.28
2023-04-15T17:20:19.271Z,3.58
2023-04-15T17:22:45.899Z,3.38
2023-04-15T17:25:13.662Z,3.55
2023-04-15T17:27:40.842Z,3.88
2023-04-15T17:30:08.625Z,4.25
2023-04-15T17:32:35.538Z,3.20
2023-04-15T17:35:05.904Z,3.53
2023-04-15T17:37:33.750Z,4.35
2023-04-15T17:40:00.690Z,4.28
2023-04-15T17:42:27.449Z,5.30
2023-04-15T17:44:54.095Z,5.43
2023-04-15T17:47:20.790Z,4.20
2023-04-15T17:49:47.893Z,5.15
2023-04-15T17:52:14.602Z,5.25
2023-04-15T17:54:41.345Z,5.28
2023-04-15T17:57:09.141Z,5.63
2023-04-15T17:59:35.822Z,5.22
2023-04-15T18:02:02.662Z,5.03
2023-04-15T18:04:29.488Z,5.28
2023-04-15T18:06:56.242Z,5.00
2023-04-15T18:09:25.350Z,5.05
2023-04-15T18:11:51.966Z,5.25
2023-04-15T18:14:32.979Z,4.65
2023-04-15T18:17:04.563Z,5.15
2023-04-15T18:19:31.886Z,5.00
2023-04-15T18:22:00.237Z,4.90
2023-04-15T18:24:27.507Z,5.45
2023-04-15T18:26:54.274Z,5.88
2023-04-15T18:29:21.034Z,6.28
2023-04-15T18:31:47.976Z,5.55
2023-04-15T18:34:14.717Z,5.45
2023-04-15T18:36:41.518Z,5.22
2023-04-15T18:39:08.531Z,5.35
2023-04-15T18:41:35.244Z,5.95
2023-04-15T18:44:02.058Z,5.70
2023-04-15T18:46:29.271Z,5.40
2023-04-15T18:48:55.896Z,6.07
2023-04-15T18:51:22.646Z,6.95
2023-04-15T18:53:49.499Z,7.30
2023-04-15T18:56:16.318Z,7.18
2023-04-15T18:59:18.127Z,6.20
2023-04-15T19:01:32.534Z,6.47
2023-04-15T19:03:59.475Z,6.10
2023-04-15T19:06:27.753Z,6.25
2023-04-15T19:08:55.043Z,6.50
2023-04-15T19:11:22.428Z,6.03
2023-04-15T19:13:49.278Z,6.75
2023-04-15T19:16:16.118Z,6.40
2023-04-15T19:18:44.090Z,5.97
2023-04-15T19:21:13.341Z,5.75
2023-04-15T19:23:43.033Z,5.70
2023-04-15T19:26:10.305Z,6.75
2023-04-15T19:28:37.030Z,7.28
2023-04-15T19:31:03.965Z,6.32
2023-04-15T19:33:33.499Z,6.28
2023-04-15T19:36:05.596Z,6.22
2023-04-15T19:38:34.932Z,6.45
2023-04-15T19:41:01.984Z,5.78
2023-04-15T19:43:29.059Z,5.90
2023-04-15T19:45:56.400Z,7.30
2023-04-15T19:48:24.414Z,6.28
2023-04-15T19:50:51.803Z,5.97
2023-04-15T19:53:18.955Z,6.07
2023-04-15T19:55:47.051Z,6.80
2023-04-15T19:58:14.040Z,6.13
2023-04-15T20:00:40.982Z,6.25
2023-04-15T20:03:07.954Z,5.78
2023-04-15T20:05:37.731Z,6.63
2023-04-15T20:08:07.056Z,6.75
2023-04-15T20:10:33.882Z,6.65
2023-04-15T20:13:00.510Z,6.78
2023-04-15T20:15:27.340Z,6.55
2023-04-15T20:17:58.840Z,6.90
2023-04-15T20:20:25.926Z,6.18
2023-04-15T20:22:53.182Z,6.13
2023-04-15T20:25:21.162Z,6.10
2023-04-15T20:27:47.909Z,6.90
2023-04-15T20:30:14.582Z,5.80
2023-04-15T20:32:41.387Z,6.95
2023-04-15T20:35:08.298Z,7.10
2023-04-15T20:37:36.784Z,6.47
2023-04-15T20:40:03.632Z,6.68
2023-04-15T20:42:34.659Z,7.40
2023-04-15T20:45:06.995Z,6.25
2023-04-15T20:47:33.643Z,6.88
2023-04-15T20:50:00.594Z,7.93
2023-04-15T20:52:27.751Z,8.07
2023-04-15T20:54:54.363Z,7.85
2023-04-15T20:57:21.029Z,7.90
2023-04-15T20:59:49.183Z,8.07
2023-04-15T21:02:16.065Z,7.20
2023-04-15T21:04:42.917Z,7.40
2023-04-15T21:07:10.435Z,7.25
2023-04-15T21:09:43.816Z,7.20
2023-04-15T21:12:11.246Z,7.97
2023-04-15T21:14:50.074Z,8.30
2023-04-15T21:17:18.018Z,7.65
2023-04-15T21:19:44.727Z,8.05
2023-04-15T21:22:11.368Z,8.65
2023-04-15T21:24:38.114Z,8.60
2023-04-15T21:27:04.788Z,8.90
2023-04-15T21:29:32.910Z,8.85
2023-04-15T21:31:59.765Z,8.95
2023-04-15T21:34:27.914Z,9.60
2023-04-15T21:36:54.562Z,9.73
2023-04-15T21:39:22.603Z,10.05
2023-04-15T21:41:49.260Z,10.25
2023-04-15T21:44:16.363Z,8.73
2023-04-15T21:46:46.045Z,9.80
2023-04-15T21:49:13.242Z,9.18
2023-04-15T21:51:39.891Z,8.88
2023-04-15T21:54:06.544Z,9.35
2023-04-15T21:56:38.453Z,9.55
2023-04-15T21:59:05.450Z,9.43
2023-04-15T22:01:32.421Z,9.52
2023-04-15T22:04:00.596Z,9.98
2023-04-15T22:06:27.307Z,10.32
2023-04-15T22:09:09.246Z,14.15
2023-04-15T22:11:37.786Z,10.88
2023-04-15T22:14:05.717Z,12.20
2023-04-15T22:16:32.472Z,11.25
2023-04-15T22:18:59.139Z,10.65
2023-04-15T22:21:26.682Z,10.95
2023-04-15T22:23:53.397Z,11.07
2023-04-15T22:26:40.759Z,10.85
2023-04-15T22:29:07.633Z,12.30
2023-04-15T22:31:34.465Z,11.52
2023-04-15T22:34:01.264Z,11.98
2023-04-15T22:36:28.426Z,10.77
2023-04-15T22:38:55.161Z,12.48
2023-04-15T22:41:23.923Z,10.68
2023-04-15T22:43:50.682Z,11.35
2023-04-15T22:46:17.370Z,11.07
2023-04-15T22:48:44.024Z,11.98
2023-04-15T22:51:10.805Z,11.50
2023-04-15T22:53:37.455Z,11.82
2023-04-15T22:56:04.252Z,12.10
2023-04-15T22:58:32.073Z,11.10
2023-04-15T23:00:59.144Z,11.45
2023-04-15T23:03:25.967Z,11.65
2023-04-15T23:05:52.737Z,12.55
2023-04-15T23:08:19.467Z,11.65
2023-04-15T23:10:47.552Z,10.55
2023-04-15T23:13:14.211Z,12.05
2023-04-15T23:15:41.265Z,12.32
2023-04-15T23:18:08.001Z,13.02
2023-04-15T23:20:34.724Z,13.23
2023-04-15T23:23:01.478Z,11.38
2023-04-15T23:25:28.113Z,11.57
2023-04-15T23:27:55.020Z,12.65
2023-04-15T23:30:21.760Z,12.50
2023-04-15T23:32:48.685Z,13.55
2023-04-15T23:35:16.052Z,12.52
2023-04-15T23:37:42.715Z,11.85
2023-04-15T23:40:09.786Z,11.68
2023-04-15T23:42:36.570Z,12.02
2023-04-15T23:45:03.264Z,12.85
2023-04-15T23:47:29.961Z,12.63
2023-04-15T23:49:56.607Z,12.73
2023-04-15T23:52:23.335Z,12.05
2023-04-15T23:54:49.927Z,13.35
2023-04-15T23:57:16.677Z,11.98
2023-04-15T23:59:43.292Z,12.90
